sensor_id;sensor_type;location;lat;lon;timestamp;P1;durP1;ratioP1;P2;durP2;ratioP2
61254;SDS011;47128;47.530;8.584;2022-07-19T00:00:35;4.78;;;3.67;;
61254;SDS011;47128;47.530;8.584;2022-07-19T00:03:01;7.70;;;3.70;;
61254;SDS011;47128;47.530;8.584;2022-07-19T00:05:27;5.13;;;3.97;;
61254;SDS011;47128;47.530;8.584;2022-07-19T00:07:53;6.70;;;3.88;;
61254;SDS011;47128;47.530;8.584;2022-07-19T00:10:21;5.88;;;4.40;;
61254;SDS011;47128;47.530;8.584;2022-07-19T00:12:47;6.65;;;3.80;;
61254;SDS011;47128;47.530;8.584;2022-07-19T00:15:14;6.70;;;3.85;;
61254;SDS011;47128;47.530;8.584;2022-07-19T00:17:41;5.82;;;4.00;;
61254;SDS011;47128;47.530;8.584;2022-07-19T00:20:15;5.53;;;4.47;;
61254;SDS011;47128;47.530;8.584;2022-07-19T00:22:44;6.00;;;4.20;;
61254;SDS011;47128;47.530;8.584;2022-07-19T00:25:10;9.95;;;4.38;;
61254;SDS011;47128;47.530;8.584;2022-07-19T00:27:36;5.72;;;4.13;;
61254;SDS011;47128;47.530;8.584;2022-07-19T00:30:05;5.50;;;3.70;;
61254;SDS011;47128;47.530;8.584;2022-07-19T00:32:31;5.15;;;4.13;;
61254;SDS011;47128;47.530;8.584;2022-07-19T00:34:57;6.88;;;4.30;;
61254;SDS011;47128;47.530;8.584;2022-07-19T00:37:32;7.38;;;4.20;;
61254;SDS011;47128;47.530;8.584;2022-07-19T00:39:57;4.72;;;4.03;;
61254;SDS011;47128;47.530;8.584;2022-07-19T00:42:23;5.50;;;3.75;;
61254;SDS011;47128;47.530;8.584;2022-07-19T00:44:52;5.95;;;4.30;;
61254;SDS011;47128;47.530;8.584;2022-07-19T00:47:17;7.10;;;4.00;;
61254;SDS011;47128;47.530;8.584;2022-07-19T00:49:44;5.85;;;3.67;;
61254;SDS011;47128;47.530;8.584;2022-07-19T00:52:09;4.53;;;3.95;;
61254;SDS011;47128;47.530;8.584;2022-07-19T00:54:38;7.30;;;4.30;;
61254;SDS011;47128;47.530;8.584;2022-07-19T00:57:05;5.20;;;3.70;;
61254;SDS011;47128;47.530;8.584;2022-07-19T00:59:31;6.47;;;4.13;;
61254;SDS011;47128;47.530;8.584;2022-07-19T01:01:59;7.38;;;4.40;;
61254;SDS011;47128;47.530;8.584;2022-07-19T01:04:28;7.35;;;4.30;;
61254;SDS011;47128;47.530;8.584;2022-07-19T01:06:53;8.00;;;4.97;;
61254;SDS011;47128;47.530;8.584;2022-07-19T01:09:19;5.65;;;4.20;;
61254;SDS011;47128;47.530;8.584;2022-07-19T01:11:50;6.95;;;4.15;;
61254;SDS011;47128;47.530;8.584;2022-07-19T01:14:16;5.00;;;4.38;;
61254;SDS011;47128;47.530;8.584;2022-07-19T01:16:46;6.88;;;4.25;;
61254;SDS011;47128;47.530;8.584;2022-07-19T01:19:12;8.40;;;4.22;;
61254;SDS011;47128;47.530;8.584;2022-07-19T01:21:38;5.43;;;4.40;;
61254;SDS011;47128;47.530;8.584;2022-07-19T01:24:04;5.88;;;4.50;;
61254;SDS011;47128;47.530;8.584;2022-07-19T01:26:30;5.00;;;4.03;;
61254;SDS011;47128;47.530;8.584;2022-07-19T01:28:56;7.63;;;4.20;;
61254;SDS011;47128;47.530;8.584;2022-07-19T01:31:22;5.68;;;4.00;;
61254;SDS011;47128;47.530;8.584;2022-07-19T01:33:47;7.05;;;4.03;;
61254;SDS011;47128;47.530;8.584;2022-07-19T01:36:13;6.88;;;3.90;;
61254;SDS011;47128;47.530;8.584;2022-07-19T01:38:39;7.40;;;4.60;;
61254;SDS011;47128;47.530;8.584;2022-07-19T01:41:05;14.80;;;4.38;;
61254;SDS011;47128;47.530;8.584;2022-07-19T01:43:31;7.05;;;4.30;;
61254;SDS011;47128;47.530;8.584;2022-07-19T01:45:57;5.88;;;4.28;;
61254;SDS011;47128;47.530;8.584;2022-07-19T01:48:24;6.90;;;4.60;;
61254;SDS011;47128;47.530;8.584;2022-07-19T01:50:50;5.85;;;4.68;;
61254;SDS011;47128;47.530;8.584;2022-07-19T01:53:16;5.93;;;4.30;;
61254;SDS011;47128;47.530;8.584;2022-07-19T01:55:41;7.35;;;4.30;;
61254;SDS011;47128;47.530;8.584;2022-07-19T01:58:07;5.45;;;4.15;;
61254;SDS011;47128;47.530;8.584;2022-07-19T02:00:33;5.07;;;4.30;;
61254;SDS011;47128;47.530;8.584;2022-07-19T02:02:58;10.00;;;4.50;;
61254;SDS011;47128;47.530;8.584;2022-07-19T02:05:24;8.23;;;5.25;;
61254;SDS011;47128;47.530;8.584;2022-07-19T02:07:50;5.57;;;4.18;;
61254;SDS011;47128;47.530;8.584;2022-07-19T02:10:16;7.47;;;4.53;;
61254;SDS011;47128;47.530;8.584;2022-07-19T02:12:42;5.05;;;4.47;;
61254;SDS011;47128;47.530;8.584;2022-07-19T02:15:08;6.43;;;4.40;;
61254;SDS011;47128;47.530;8.584;2022-07-19T02:17:34;5.22;;;4.57;;
61254;SDS011;47128;47.530;8.584;2022-07-19T02:20:00;7.53;;;4.70;;
61254;SDS011;47128;47.530;8.584;2022-07-19T02:22:26;6.68;;;4.60;;
61254;SDS011;47128;47.530;8.584;2022-07-19T02:24:52;5.72;;;4.63;;
61254;SDS011;47128;47.530;8.584;2022-07-19T02:27:17;8.20;;;4.93;;
61254;SDS011;47128;47.530;8.584;2022-07-19T02:29:43;6.95;;;4.40;;
61254;SDS011;47128;47.530;8.584;2022-07-19T02:32:08;6.85;;;4.60;;
61254;SDS011;47128;47.530;8.584;2022-07-19T02:34:34;8.85;;;4.68;;
61254;SDS011;47128;47.530;8.584;2022-07-19T02:37:00;7.07;;;4.88;;
61254;SDS011;47128;47.530;8.584;2022-07-19T02:39:27;10.65;;;5.10;;
61254;SDS011;47128;47.530;8.584;2022-07-19T02:41:53;8.48;;;4.43;;
61254;SDS011;47128;47.530;8.584;2022-07-19T02:44:18;7.55;;;4.55;;
61254;SDS011;47128;47.530;8.584;2022-07-19T02:46:44;9.50;;;5.07;;
61254;SDS011;47128;47.530;8.584;2022-07-19T02:49:10;5.78;;;4.68;;
61254;SDS011;47128;47.530;8.584;2022-07-19T02:51:36;7.22;;;5.53;;
61254;SDS011;47128;47.530;8.584;2022-07-19T02:54:01;8.10;;;4.93;;
61254;SDS011;47128;47.530;8.584;2022-07-19T02:56:30;7.43;;;4.82;;
61254;SDS011;47128;47.530;8.584;2022-07-19T02:58:55;7.03;;;4.85;;
61254;SDS011;47128;47.530;8.584;2022-07-19T03:01:21;7.40;;;5.07;;
61254;SDS011;47128;47.530;8.584;2022-07-19T03:03:47;8.70;;;5.07;;
61254;SDS011;47128;47.530;8.584;2022-07-19T03:06:15;8.35;;;4.57;;
61254;SDS011;47128;47.530;8.584;2022-07-19T03:08:42;10.52;;;5.00;;
61254;SDS011;47128;47.530;8.584;2022-07-19T03:11:08;9.38;;;5.18;;
61254;SDS011;47128;47.530;8.584;2022-07-19T03:13:34;8.48;;;5.00;;
61254;SDS011;47128;47.530;8.584;2022-07-19T03:15:59;6.75;;;5.05;;
61254;SDS011;47128;47.530;8.584;2022-07-19T03:18:25;8.48;;;4.97;;
61254;SDS011;47128;47.530;8.584;2022-07-19T03:20:50;6.85;;;4.97;;
61254;SDS011;47128;47.530;8.584;2022-07-19T03:23:16;7.90;;;5.45;;
61254;SDS011;47128;47.530;8.584;2022-07-19T03:25:42;7.35;;;5.22;;
61254;SDS011;47128;47.530;8.584;2022-07-19T03:28:07;8.13;;;5.18;;
61254;SDS011;47128;47.530;8.584;2022-07-19T03:30:33;7.63;;;5.10;;
61254;SDS011;47128;47.530;8.584;2022-07-19T03:32:59;7.57;;;5.03;;
61254;SDS011;47128;47.530;8.584;2022-07-19T03:35:25;8.52;;;5.35;;
61254;SDS011;47128;47.530;8.584;2022-07-19T03:37:50;7.07;;;4.95;;
61254;SDS011;47128;47.530;8.584;2022-07-19T03:40:16;7.53;;;5.47;;
61254;SDS011;47128;47.530;8.584;2022-07-19T03:42:42;8.57;;;5.80;;
61254;SDS011;47128;47.530;8.584;2022-07-19T03:45:07;9.57;;;5.82;;
61254;SDS011;47128;47.530;8.584;2022-07-19T03:47:33;8.20;;;5.22;;
61254;SDS011;47128;47.530;8.584;2022-07-19T03:49:59;7.85;;;5.40;;
61254;SDS011;47128;47.530;8.584;2022-07-19T03:52:25;7.70;;;5.40;;
61254;SDS011;47128;47.530;8.584;2022-07-19T03:54:51;9.65;;;5.35;;
61254;SDS011;47128;47.530;8.584;2022-07-19T03:57:20;8.38;;;5.45;;
61254;SDS011;47128;47.530;8.584;2022-07-19T03:59:45;8.15;;;4.63;;
61254;SDS011;47128;47.530;8.584;2022-07-19T04:02:11;6.65;;;4.93;;
61254;SDS011;47128;47.530;8.584;2022-07-19T04:04:37;7.43;;;5.30;;
61254;SDS011;47128;47.530;8.584;2022-07-19T04:07:02;9.50;;;5.55;;
61254;SDS011;47128;47.530;8.584;2022-07-19T04:09:29;9.57;;;5.63;;
61254;SDS011;47128;47.530;8.584;2022-07-19T04:11:54;5.88;;;5.20;;
61254;SDS011;47128;47.530;8.584;2022-07-19T04:14:20;10.07;;;5.47;;
61254;SDS011;47128;47.530;8.584;2022-07-19T04:16:46;8.10;;;5.93;;
61254;SDS011;47128;47.530;8.584;2022-07-19T04:19:11;10.30;;;5.80;;
61254;SDS011;47128;47.530;8.584;2022-07-19T04:21:37;7.30;;;5.32;;
61254;SDS011;47128;47.530;8.584;2022-07-19T04:24:03;7.65;;;5.30;;
61254;SDS011;47128;47.530;8.584;2022-07-19T04:26:29;10.07;;;5.70;;
61254;SDS011;47128;47.530;8.584;2022-07-19T04:28:54;6.70;;;5.22;;
61254;SDS011;47128;47.530;8.584;2022-07-19T04:31:20;7.70;;;5.65;;
61254;SDS011;47128;47.530;8.584;2022-07-19T04:33:46;6.60;;;5.15;;
61254;SDS011;47128;47.530;8.584;2022-07-19T04:36:14;6.07;;;5.13;;
61254;SDS011;47128;47.530;8.584;2022-07-19T04:38:40;6.53;;;5.78;;
61254;SDS011;47128;47.530;8.584;2022-07-19T04:41:05;7.47;;;5.57;;
61254;SDS011;47128;47.530;8.584;2022-07-19T04:43:31;10.18;;;5.55;;
61254;SDS011;47128;47.530;8.584;2022-07-19T04:45:57;7.50;;;5.38;;
61254;SDS011;47128;47.530;8.584;2022-07-19T04:48:25;8.73;;;5.90;;
61254;SDS011;47128;47.530;8.584;2022-07-19T04:50:51;7.90;;;5.90;;
61254;SDS011;47128;47.530;8.584;2022-07-19T04:53:19;7.90;;;5.85;;
61254;SDS011;47128;47.530;8.584;2022-07-19T04:55:47;10.95;;;5.82;;
61254;SDS011;47128;47.530;8.584;2022-07-19T04:58:13;11.85;;;6.30;;
61254;SDS011;47128;47.530;8.584;2022-07-19T05:00:39;11.85;;;6.20;;
61254;SDS011;47128;47.530;8.584;2022-07-19T05:03:04;8.02;;;6.10;;
61254;SDS011;47128;47.530;8.584;2022-07-19T05:05:39;9.30;;;6.00;;
61254;SDS011;47128;47.530;8.584;2022-07-19T05:08:07;9.07;;;5.70;;
61254;SDS011;47128;47.530;8.584;2022-07-19T05:10:33;8.88;;;5.97;;
61254;SDS011;47128;47.530;8.584;2022-07-19T05:13:03;9.50;;;6.25;;
61254;SDS011;47128;47.530;8.584;2022-07-19T05:15:29;11.82;;;6.63;;
61254;SDS011;47128;47.530;8.584;2022-07-19T05:18:03;9.00;;;5.95;;
61254;SDS011;47128;47.530;8.584;2022-07-19T05:20:51;6.72;;;5.90;;
61254;SDS011;47128;47.530;8.584;2022-07-19T05:23:28;7.97;;;6.22;;
61254;SDS011;47128;47.530;8.584;2022-07-19T05:26:14;9.68;;;6.53;;
61254;SDS011;47128;47.530;8.584;2022-07-19T05:28:40;11.13;;;6.25;;
61254;SDS011;47128;47.530;8.584;2022-07-19T05:34:19;9.60;;;6.38;;
61254;SDS011;47128;47.530;8.584;2022-07-19T05:36:45;9.82;;;6.63;;
61254;SDS011;47128;47.530;8.584;2022-07-19T05:39:13;10.38;;;6.70;;
61254;SDS011;47128;47.530;8.584;2022-07-19T05:41:42;9.23;;;6.30;;
61254;SDS011;47128;47.530;8.584;2022-07-19T05:44:11;9.93;;;6.00;;
61254;SDS011;47128;47.530;8.584;2022-07-19T05:46:40;8.40;;;6.28;;
61254;SDS011;47128;47.530;8.584;2022-07-19T05:49:07;11.38;;;6.22;;
61254;SDS011;47128;47.530;8.584;2022-07-19T05:51:45;8.10;;;5.88;;
61254;SDS011;47128;47.530;8.584;2022-07-19T05:54:40;7.70;;;5.85;;
61254;SDS011;47128;47.530;8.584;2022-07-19T06:00:58;8.85;;;5.72;;
61254;SDS011;47128;47.530;8.584;2022-07-19T06:03:59;5.68;;;5.07;;
61254;SDS011;47128;47.530;8.584;2022-07-19T06:06:39;6.57;;;5.22;;
61254;SDS011;47128;47.530;8.584;2022-07-19T06:09:11;8.05;;;5.53;;
61254;SDS011;47128;47.530;8.584;2022-07-19T06:12:03;9.90;;;5.38;;
61254;SDS011;47128;47.530;8.584;2022-07-19T06:14:48;9.73;;;5.82;;
61254;SDS011;47128;47.530;8.584;2022-07-19T06:23:49;7.63;;;5.63;;
61254;SDS011;47128;47.530;8.584;2022-07-19T06:29:39;5.15;;;4.65;;
61254;SDS011;47128;47.530;8.584;2022-07-19T06:33:20;6.50;;;4.47;;
61254;SDS011;47128;47.530;8.584;2022-07-19T06:35:54;15.05;;;5.03;;
61254;SDS011;47128;47.530;8.584;2022-07-19T06:38:23;9.35;;;4.45;;
61254;SDS011;47128;47.530;8.584;2022-07-19T06:41:03;9.57;;;4.40;;
61254;SDS011;47128;47.530;8.584;2022-07-19T06:43:30;9.60;;;5.03;;
61254;SDS011;47128;47.530;8.584;2022-07-19T06:46:12;6.40;;;4.53;;
61254;SDS011;47128;47.530;8.584;2022-07-19T06:48:45;9.27;;;4.18;;
61254;SDS011;47128;47.530;8.584;2022-07-19T06:51:13;7.25;;;4.38;;
61254;SDS011;47128;47.530;8.584;2022-07-19T06:53:43;5.80;;;4.20;;
61254;SDS011;47128;47.530;8.584;2022-07-19T06:56:18;6.60;;;3.85;;
61254;SDS011;47128;47.530;8.584;2022-07-19T06:58:54;6.60;;;4.28;;
61254;SDS011;47128;47.530;8.584;2022-07-19T07:01:19;7.00;;;4.00;;
61254;SDS011;47128;47.530;8.584;2022-07-19T07:14:25;7.53;;;3.30;;
61254;SDS011;47128;47.530;8.584;2022-07-19T07:16:55;4.10;;;3.42;;
61254;SDS011;47128;47.530;8.584;2022-07-19T07:19:27;6.63;;;3.28;;
61254;SDS011;47128;47.530;8.584;2022-07-19T07:21:53;3.47;;;3.07;;
61254;SDS011;47128;47.530;8.584;2022-07-19T07:24:19;3.83;;;3.03;;
61254;SDS011;47128;47.530;8.584;2022-07-19T07:26:45;5.55;;;3.70;;
61254;SDS011;47128;47.530;8.584;2022-07-19T07:32:24;10.68;;;4.05;;
61254;SDS011;47128;47.530;8.584;2022-07-19T07:34:53;5.35;;;3.55;;
61254;SDS011;47128;47.530;8.584;2022-07-19T07:37:28;10.82;;;3.45;;
61254;SDS011;47128;47.530;8.584;2022-07-19T07:45:37;7.68;;;3.63;;
61254;SDS011;47128;47.530;8.584;2022-07-19T07:48:16;5.82;;;3.65;;
61254;SDS011;47128;47.530;8.584;2022-07-19T07:50:46;7.15;;;3.58;;
61254;SDS011;47128;47.530;8.584;2022-07-19T07:53:31;8.30;;;3.80;;
61254;SDS011;47128;47.530;8.584;2022-07-19T07:59:30;9.40;;;3.70;;
61254;SDS011;47128;47.530;8.584;2022-07-19T08:01:57;8.10;;;3.72;;
61254;SDS011;47128;47.530;8.584;2022-07-19T08:04:42;6.45;;;3.75;;
61254;SDS011;47128;47.530;8.584;2022-07-19T08:07:19;5.53;;;4.00;;
61254;SDS011;47128;47.530;8.584;2022-07-19T08:09:46;7.65;;;3.95;;
61254;SDS011;47128;47.530;8.584;2022-07-19T08:12:13;7.70;;;3.78;;
61254;SDS011;47128;47.530;8.584;2022-07-19T08:14:42;8.90;;;4.18;;
61254;SDS011;47128;47.530;8.584;2022-07-19T08:17:09;5.50;;;3.75;;
61254;SDS011;47128;47.530;8.584;2022-07-19T08:19:36;5.88;;;3.90;;
61254;SDS011;47128;47.530;8.584;2022-07-19T08:22:09;4.10;;;3.58;;
61254;SDS011;47128;47.530;8.584;2022-07-19T08:24:35;10.10;;;3.63;;
61254;SDS011;47128;47.530;8.584;2022-07-19T08:27:02;6.05;;;3.60;;
61254;SDS011;47128;47.530;8.584;2022-07-19T08:29:27;3.72;;;3.42;;
61254;SDS011;47128;47.530;8.584;2022-07-19T08:32:00;4.35;;;3.58;;
61254;SDS011;47128;47.530;8.584;2022-07-19T08:34:26;5.87;;;3.37;;
61254;SDS011;47128;47.530;8.584;2022-07-19T08:36:54;4.13;;;3.40;;
61254;SDS011;47128;47.530;8.584;2022-07-19T08:39:21;3.80;;;3.40;;
61254;SDS011;47128;47.530;8.584;2022-07-19T08:41:52;6.55;;;4.10;;
61254;SDS011;47128;47.530;8.584;2022-07-19T08:44:17;5.03;;;3.67;;
61254;SDS011;47128;47.530;8.584;2022-07-19T08:46:46;5.88;;;3.70;;
61254;SDS011;47128;47.530;8.584;2022-07-19T08:49:19;4.93;;;3.13;;
61254;SDS011;47128;47.530;8.584;2022-07-19T08:51:50;6.28;;;3.53;;
61254;SDS011;47128;47.530;8.584;2022-07-19T08:54:23;4.47;;;3.45;;
61254;SDS011;47128;47.530;8.584;2022-07-19T08:57:04;4.97;;;3.28;;
61254;SDS011;47128;47.530;8.584;2022-07-19T08:59:52;7.18;;;4.28;;
61254;SDS011;47128;47.530;8.584;2022-07-19T09:02:19;8.52;;;4.20;;
61254;SDS011;47128;47.530;8.584;2022-07-19T09:04:59;4.85;;;4.05;;
61254;SDS011;47128;47.530;8.584;2022-07-19T09:07:34;4.00;;;3.60;;
61254;SDS011;47128;47.530;8.584;2022-07-19T09:15:38;5.38;;;3.50;;
61254;SDS011;47128;47.530;8.584;2022-07-19T09:18:20;5.10;;;3.83;;
61254;SDS011;47128;47.530;8.584;2022-07-19T09:20:47;5.60;;;3.60;;
61254;SDS011;47128;47.530;8.584;2022-07-19T09:23:27;7.35;;;3.95;;
61254;SDS011;47128;47.530;8.584;2022-07-19T09:25:54;5.38;;;3.85;;
61254;SDS011;47128;47.530;8.584;2022-07-19T09:28:23;6.25;;;3.58;;
61254;SDS011;47128;47.530;8.584;2022-07-19T09:33:36;9.43;;;3.10;;
61254;SDS011;47128;47.530;8.584;2022-07-19T09:36:12;6.32;;;3.25;;
61254;SDS011;47128;47.530;8.584;2022-07-19T09:38:39;9.27;;;3.90;;
61254;SDS011;47128;47.530;8.584;2022-07-19T09:41:09;3.60;;;3.13;;
61254;SDS011;47128;47.530;8.584;2022-07-19T09:43:58;6.28;;;3.63;;
61254;SDS011;47128;47.530;8.584;2022-07-19T09:46:34;4.65;;;3.47;;
61254;SDS011;47128;47.530;8.584;2022-07-19T09:49:15;5.93;;;3.53;;
61254;SDS011;47128;47.530;8.584;2022-07-19T09:51:52;7.88;;;3.90;;
61254;SDS011;47128;47.530;8.584;2022-07-19T09:54:23;4.82;;;3.38;;
61254;SDS011;47128;47.530;8.584;2022-07-19T09:56:59;6.65;;;3.65;;
61254;SDS011;47128;47.530;8.584;2022-07-19T09:59:25;5.88;;;3.53;;
61254;SDS011;47128;47.530;8.584;2022-07-19T10:04:30;3.67;;;3.33;;
61254;SDS011;47128;47.530;8.584;2022-07-19T10:06:58;6.38;;;3.55;;
61254;SDS011;47128;47.530;8.584;2022-07-19T10:09:26;4.75;;;3.33;;
61254;SDS011;47128;47.530;8.584;2022-07-19T10:11:53;6.75;;;3.65;;
61254;SDS011;47128;47.530;8.584;2022-07-19T10:14:45;5.70;;;3.70;;
61254;SDS011;47128;47.530;8.584;2022-07-19T10:19:47;8.23;;;3.78;;
61254;SDS011;47128;47.530;8.584;2022-07-19T10:22:23;3.45;;;3.13;;
61254;SDS011;47128;47.530;8.584;2022-07-19T10:30:17;7.95;;;3.60;;
61254;SDS011;47128;47.530;8.584;2022-07-19T10:32:58;7.15;;;4.45;;
61254;SDS011;47128;47.530;8.584;2022-07-19T10:35:31;7.50;;;4.03;;
61254;SDS011;47128;47.530;8.584;2022-07-19T10:43:25;7.13;;;4.30;;
61254;SDS011;47128;47.530;8.584;2022-07-19T10:51:36;5.30;;;3.20;;
61254;SDS011;47128;47.530;8.584;2022-07-19T10:54:05;5.38;;;3.45;;
61254;SDS011;47128;47.530;8.584;2022-07-19T10:56:37;6.07;;;3.50;;
61254;SDS011;47128;47.530;8.584;2022-07-19T10:59:11;5.45;;;3.08;;
61254;SDS011;47128;47.530;8.584;2022-07-19T11:01:38;4.38;;;3.35;;
61254;SDS011;47128;47.530;8.584;2022-07-19T11:04:25;6.65;;;3.38;;
61254;SDS011;47128;47.530;8.584;2022-07-19T11:07:09;6.38;;;3.50;;
61254;SDS011;47128;47.530;8.584;2022-07-19T11:09:44;5.65;;;3.35;;
61254;SDS011;47128;47.530;8.584;2022-07-19T11:12:35;5.20;;;3.75;;
61254;SDS011;47128;47.530;8.584;2022-07-19T11:15:12;4.95;;;3.40;;
61254;SDS011;47128;47.530;8.584;2022-07-19T11:17:52;6.80;;;3.47;;
61254;SDS011;47128;47.530;8.584;2022-07-19T11:20:56;5.88;;;3.38;;
61254;SDS011;47128;47.530;8.584;2022-07-19T11:23:29;3.78;;;3.08;;
61254;SDS011;47128;47.530;8.584;2022-07-19T11:29:16;4.82;;;3.15;;
61254;SDS011;47128;47.530;8.584;2022-07-19T11:32:02;4.50;;;3.40;;
61254;SDS011;47128;47.530;8.584;2022-07-19T11:34:32;5.07;;;3.10;;
61254;SDS011;47128;47.530;8.584;2022-07-19T11:37:09;3.92;;;3.25;;
61254;SDS011;47128;47.530;8.584;2022-07-19T11:39:47;6.32;;;3.10;;
61254;SDS011;47128;47.530;8.584;2022-07-19T11:42:42;3.95;;;3.10;;
61254;SDS011;47128;47.530;8.584;2022-07-19T11:45:25;4.15;;;3.33;;
61254;SDS011;47128;47.530;8.584;2022-07-19T11:48:34;4.13;;;3.10;;
61254;SDS011;47128;47.530;8.584;2022-07-19T11:51:25;5.22;;;3.50;;
61254;SDS011;47128;47.530;8.584;2022-07-19T11:58:07;4.82;;;3.40;;
61254;SDS011;47128;47.530;8.584;2022-07-19T12:00:36;3.75;;;3.35;;
61254;SDS011;47128;47.530;8.584;2022-07-19T12:09:12;3.28;;;3.03;;
61254;SDS011;47128;47.530;8.584;2022-07-19T12:12:23;7.55;;;3.28;;
61254;SDS011;47128;47.530;8.584;2022-07-19T12:14:50;6.28;;;3.35;;
61254;SDS011;47128;47.530;8.584;2022-07-19T12:17:36;5.88;;;2.92;;
61254;SDS011;47128;47.530;8.584;2022-07-19T12:20:23;6.13;;;3.35;;
61254;SDS011;47128;47.530;8.584;2022-07-19T12:22:49;3.95;;;3.20;;
61254;SDS011;47128;47.530;8.584;2022-07-19T12:25:38;3.97;;;3.15;;
61254;SDS011;47128;47.530;8.584;2022-07-19T12:28:04;5.32;;;2.70;;
61254;SDS011;47128;47.530;8.584;2022-07-19T12:30:34;5.00;;;4.07;;
61254;SDS011;47128;47.530;8.584;2022-07-19T12:33:13;3.58;;;2.88;;
61254;SDS011;47128;47.530;8.584;2022-07-19T12:35:45;4.72;;;2.83;;
61254;SDS011;47128;47.530;8.584;2022-07-19T12:38:12;4.07;;;2.92;;
61254;SDS011;47128;47.530;8.584;2022-07-19T12:40:42;4.90;;;2.75;;
61254;SDS011;47128;47.530;8.584;2022-07-19T12:43:10;4.03;;;2.83;;
61254;SDS011;47128;47.530;8.584;2022-07-19T12:45:48;5.90;;;3.00;;
61254;SDS011;47128;47.530;8.584;2022-07-19T12:48:22;9.15;;;3.15;;
61254;SDS011;47128;47.530;8.584;2022-07-19T12:50:48;4.13;;;3.10;;
61254;SDS011;47128;47.530;8.584;2022-07-19T12:53:18;4.00;;;3.08;;
61254;SDS011;47128;47.530;8.584;2022-07-19T12:55:46;4.38;;;2.97;;
61254;SDS011;47128;47.530;8.584;2022-07-19T12:58:15;4.57;;;2.80;;
61254;SDS011;47128;47.530;8.584;2022-07-19T13:01:05;5.93;;;3.10;;
61254;SDS011;47128;47.530;8.584;2022-07-19T13:03:37;3.90;;;2.90;;
61254;SDS011;47128;47.530;8.584;2022-07-19T13:06:07;4.22;;;3.00;;
61254;SDS011;47128;47.530;8.584;2022-07-19T13:08:38;4.97;;;2.88;;
61254;SDS011;47128;47.530;8.584;2022-07-19T13:11:09;7.70;;;3.88;;
61254;SDS011;47128;47.530;8.584;2022-07-19T13:13:36;3.83;;;2.92;;
61254;SDS011;47128;47.530;8.584;2022-07-19T13:16:02;3.95;;;2.88;;
61254;SDS011;47128;47.530;8.584;2022-07-19T13:18:31;4.82;;;2.63;;
61254;SDS011;47128;47.530;8.584;2022-07-19T13:21:00;5.82;;;2.88;;
61254;SDS011;47128;47.530;8.584;2022-07-19T13:26:30;4.30;;;3.15;;
61254;SDS011;47128;47.530;8.584;2022-07-19T13:28:57;7.50;;;2.95;;
61254;SDS011;47128;47.530;8.584;2022-07-19T13:31:25;4.93;;;2.78;;
61254;SDS011;47128;47.530;8.584;2022-07-19T13:33:58;3.47;;;2.60;;
61254;SDS011;47128;47.530;8.584;2022-07-19T13:36:25;3.97;;;2.63;;
61254;SDS011;47128;47.530;8.584;2022-07-19T13:38:59;6.25;;;2.63;;
61254;SDS011;47128;47.530;8.584;2022-07-19T13:41:26;4.65;;;2.50;;
61254;SDS011;47128;47.530;8.584;2022-07-19T13:44:00;3.30;;;2.42;;
61254;SDS011;47128;47.530;8.584;2022-07-19T13:46:30;5.47;;;2.63;;
61254;SDS011;47128;47.530;8.584;2022-07-19T13:48:56;5.10;;;2.60;;
61254;SDS011;47128;47.530;8.584;2022-07-19T13:51:27;6.45;;;2.53;;
61254;SDS011;47128;47.530;8.584;2022-07-19T13:54:03;4.47;;;2.60;;
61254;SDS011;47128;47.530;8.584;2022-07-19T13:56:29;7.53;;;2.83;;
61254;SDS011;47128;47.530;8.584;2022-07-19T13:58:55;4.03;;;2.70;;
61254;SDS011;47128;47.530;8.584;2022-07-19T14:01:26;6.18;;;3.10;;
61254;SDS011;47128;47.530;8.584;2022-07-19T14:03:52;3.97;;;2.70;;
61254;SDS011;47128;47.530;8.584;2022-07-19T14:06:19;5.55;;;2.83;;
61254;SDS011;47128;47.530;8.584;2022-07-19T14:11:14;3.25;;;2.60;;
61254;SDS011;47128;47.530;8.584;2022-07-19T14:13:46;5.25;;;2.38;;
61254;SDS011;47128;47.530;8.584;2022-07-19T14:16:15;4.75;;;2.60;;
61254;SDS011;47128;47.530;8.584;2022-07-19T14:18:41;4.88;;;2.47;;
61254;SDS011;47128;47.530;8.584;2022-07-19T14:21:07;6.10;;;2.88;;
61254;SDS011;47128;47.530;8.584;2022-07-19T14:23:33;4.38;;;2.75;;
61254;SDS011;47128;47.530;8.584;2022-07-19T14:25:58;7.28;;;2.67;;
61254;SDS011;47128;47.530;8.584;2022-07-19T14:28:32;4.43;;;2.55;;
61254;SDS011;47128;47.530;8.584;2022-07-19T14:30:58;5.60;;;2.80;;
61254;SDS011;47128;47.530;8.584;2022-07-19T14:33:24;4.88;;;2.55;;
61254;SDS011;47128;47.530;8.584;2022-07-19T14:35:51;5.43;;;2.65;;
61254;SDS011;47128;47.530;8.584;2022-07-19T14:38:17;4.90;;;2.90;;
61254;SDS011;47128;47.530;8.584;2022-07-19T14:40:42;4.85;;;2.92;;
61254;SDS011;47128;47.530;8.584;2022-07-19T14:43:08;6.15;;;2.60;;
61254;SDS011;47128;47.530;8.584;2022-07-19T14:45:37;6.40;;;2.83;;
61254;SDS011;47128;47.530;8.584;2022-07-19T14:48:03;7.82;;;2.75;;
61254;SDS011;47128;47.530;8.584;2022-07-19T14:50:29;9.27;;;3.20;;
61254;SDS011;47128;47.530;8.584;2022-07-19T14:52:55;3.50;;;2.60;;
61254;SDS011;47128;47.530;8.584;2022-07-19T14:55:20;4.68;;;2.60;;
61254;SDS011;47128;47.530;8.584;2022-07-19T14:57:46;6.10;;;2.60;;
61254;SDS011;47128;47.530;8.584;2022-07-19T15:00:12;4.93;;;2.45;;
61254;SDS011;47128;47.530;8.584;2022-07-19T15:02:41;6.30;;;2.90;;
61254;SDS011;47128;47.530;8.584;2022-07-19T15:05:07;6.95;;;2.78;;
61254;SDS011;47128;47.530;8.584;2022-07-19T15:07:34;5.28;;;2.47;;
61254;SDS011;47128;47.530;8.584;2022-07-19T15:10:00;7.63;;;2.60;;
61254;SDS011;47128;47.530;8.584;2022-07-19T15:12:26;5.07;;;2.83;;
61254;SDS011;47128;47.530;8.584;2022-07-19T15:14:52;8.57;;;2.67;;
61254;SDS011;47128;47.530;8.584;2022-07-19T15:17:20;6.72;;;2.80;;
61254;SDS011;47128;47.530;8.584;2022-07-19T15:19:46;3.42;;;2.80;;
61254;SDS011;47128;47.530;8.584;2022-07-19T15:22:12;4.47;;;2.67;;
61254;SDS011;47128;47.530;8.584;2022-07-19T15:24:38;3.90;;;2.70;;
61254;SDS011;47128;47.530;8.584;2022-07-19T15:27:04;4.40;;;2.42;;
61254;SDS011;47128;47.530;8.584;2022-07-19T15:29:29;4.65;;;2.40;;
61254;SDS011;47128;47.530;8.584;2022-07-19T15:31:55;5.95;;;2.60;;
61254;SDS011;47128;47.530;8.584;2022-07-19T15:34:21;3.70;;;2.78;;
61254;SDS011;47128;47.530;8.584;2022-07-19T15:36:48;6.90;;;2.67;;
61254;SDS011;47128;47.530;8.584;2022-07-19T15:39:14;5.10;;;2.70;;
61254;SDS011;47128;47.530;8.584;2022-07-19T15:41:39;5.20;;;2.50;;
61254;SDS011;47128;47.530;8.584;2022-07-19T15:44:05;4.82;;;2.33;;
61254;SDS011;47128;47.530;8.584;2022-07-19T15:46:31;5.72;;;2.33;;
61254;SDS011;47128;47.530;8.584;2022-07-19T15:48:57;3.97;;;2.53;;
61254;SDS011;47128;47.530;8.584;2022-07-19T15:51:24;4.25;;;2.80;;
61254;SDS011;47128;47.530;8.584;2022-07-19T15:53:50;5.75;;;2.40;;
61254;SDS011;47128;47.530;8.584;2022-07-19T15:56:16;3.35;;;1.92;;
61254;SDS011;47128;47.530;8.584;2022-07-19T15:58:41;4.00;;;2.10;;
61254;SDS011;47128;47.530;8.584;2022-07-19T16:01:07;3.30;;;1.98;;
61254;SDS011;47128;47.530;8.584;2022-07-19T16:03:33;3.70;;;2.38;;
61254;SDS011;47128;47.530;8.584;2022-07-19T16:05:59;5.30;;;2.30;;
61254;SDS011;47128;47.530;8.584;2022-07-19T16:08:25;3.30;;;2.22;;
61254;SDS011;47128;47.530;8.584;2022-07-19T16:10:51;7.55;;;2.38;;
61254;SDS011;47128;47.530;8.584;2022-07-19T16:13:17;6.53;;;2.85;;
61254;SDS011;47128;47.530;8.584;2022-07-19T16:15:42;5.57;;;2.33;;
61254;SDS011;47128;47.530;8.584;2022-07-19T16:18:08;5.68;;;2.78;;
61254;SDS011;47128;47.530;8.584;2022-07-19T16:20:34;3.45;;;2.47;;
61254;SDS011;47128;47.530;8.584;2022-07-19T16:23:00;3.20;;;2.20;;
61254;SDS011;47128;47.530;8.584;2022-07-19T16:25:25;3.38;;;1.95;;
61254;SDS011;47128;47.530;8.584;2022-07-19T16:27:51;5.82;;;2.53;;
61254;SDS011;47128;47.530;8.584;2022-07-19T16:30:18;3.42;;;2.25;;
61254;SDS011;47128;47.530;8.584;2022-07-19T16:32:43;5.85;;;2.22;;